createdAt,value
2022-08-21T00:00:25.012Z,99125.44
2022-08-21T00:03:26.952Z,99116.19
2022-08-21T00:06:29.027Z,99119.50
2022-08-21T00:09:30.884Z,99118.91
2022-08-21T00:12:32.788Z,99120.09
2022-08-21T00:15:36.224Z,99117.47
2022-08-21T00:18:38.419Z,99108.94
2022-08-21T00:21:40.252Z,99108.13
2022-08-21T00:24:47.319Z,99108.34
2022-08-21T00:27:49.339Z,99104.81
2022-08-21T00:30:51.914Z,99104.66
2022-08-21T00:33:57.971Z,99108.66
2022-08-21T00:37:03.038Z,99107.09
2022-08-21T00:40:05.826Z,99102.34
2022-08-21T00:43:10.236Z,99099.97
2022-08-21T00:46:12.001Z,99091.09
2022-08-21T00:49:14.296Z,99086.97
2022-08-21T00:52:21.989Z,99092.09
2022-08-21T00:55:24.437Z,99085.91
2022-08-21T00:58:27.766Z,99098.09
2022-08-21T01:01:29.722Z,99100.22
2022-08-21T01:04:31.638Z,99093.72
2022-08-21T01:07:33.527Z,99097.34
2022-08-21T01:10:36.273Z,99088.34
2022-08-21T01:13:45.832Z,99077.34
2022-08-21T01:16:49.425Z,99080.16
2022-08-21T01:19:51.248Z,99074.94
2022-08-21T01:22:52.983Z,99078.34
2022-08-21T01:25:54.746Z,99074.56
2022-08-21T01:29:15.407Z,99074.22
2022-08-21T01:32:18.559Z,99067.56
2022-08-21T01:35:20.751Z,99066.59
2022-08-21T01:38:22.479Z,99071.06
2022-08-21T01:41:24.349Z,99064.66
2022-08-21T01:44:26.376Z,99068.66
2022-08-21T01:47:28.234Z,99062.63
2022-08-21T01:50:30.098Z,99064.50
2022-08-21T01:53:33.551Z,99059.00
2022-08-21T01:56:37.167Z,99060.06
2022-08-21T01:59:39.011Z,99060.88
2022-08-21T02:02:42.124Z,99063.44
2022-08-21T02:05:43.903Z,99064.72
2022-08-21T02:08:46.389Z,99069.72
2022-08-21T02:11:48.488Z,99069.94
2022-08-21T02:14:50.269Z,99059.06
2022-08-21T02:17:54.064Z,99055.75
2022-08-21T02:20:56.813Z,99062.88
2022-08-21T02:23:58.713Z,99064.38
2022-08-21T02:27:00.513Z,99060.41
2022-08-21T02:30:02.286Z,99065.06
2022-08-21T02:33:04.074Z,99063.03
2022-08-21T02:36:06.269Z,99046.97
2022-08-21T02:39:07.931Z,99055.56
2022-08-21T02:42:09.782Z,99054.50
2022-08-21T02:45:12.546Z,99048.75
2022-08-21T02:48:16.542Z,99054.25
2022-08-21T02:51:19.951Z,99055.25
2022-08-21T02:54:22.160Z,99058.19
2022-08-21T02:57:23.980Z,99056.34
2022-08-21T03:00:27.201Z,99064.38
2022-08-21T03:03:30.188Z,99064.97
2022-08-21T03:06:31.928Z,99068.28
2022-08-21T03:09:33.795Z,99065.13
2022-08-21T03:12:39.165Z,99069.44
2022-08-21T03:15:41.399Z,99070.28
2022-08-21T03:18:43.237Z,99067.94
2022-08-21T03:21:45.053Z,99063.72
2022-08-21T03:24:46.945Z,99069.75
2022-08-21T03:27:54.037Z,99073.69
2022-08-21T03:30:59.156Z,99077.47
2022-08-21T03:34:00.924Z,99073.47
2022-08-21T03:37:03.398Z,99071.50
2022-08-21T03:40:06.057Z,99075.44
2022-08-21T03:43:10.131Z,99073.19
2022-08-21T03:46:11.965Z,99071.22
2022-08-21T03:49:14.221Z,99076.19
2022-08-21T03:52:17.155Z,99080.34
2022-08-21T03:55:19.093Z,99077.25
2022-08-21T03:58:22.207Z,99074.69
2022-08-21T04:01:24.400Z,99073.78
2022-08-21T04:04:27.147Z,99073.09
2022-08-21T04:07:28.965Z,99080.31
2022-08-21T04:10:32.325Z,99081.22
2022-08-21T04:13:34.312Z,99079.94
2022-08-21T04:16:36.492Z,99084.63
2022-08-21T04:19:38.288Z,99086.88
2022-08-21T04:22:40.246Z,99084.31
2022-08-21T04:25:42.037Z,99089.06
2022-08-21T04:28:44.808Z,99086.25
2022-08-21T04:31:46.912Z,99086.50
2022-08-21T04:34:48.611Z,99091.75
2022-08-21T04:37:50.752Z,99084.63
2022-08-21T04:40:53.110Z,99093.22
2022-08-21T04:43:56.262Z,99090.34
2022-08-21T04:46:59.048Z,99097.00
2022-08-21T04:50:00.866Z,99101.59
2022-08-21T04:53:02.618Z,99088.03
2022-08-21T04:56:09.951Z,99099.75
2022-08-21T04:59:14.442Z,99094.94
2022-08-21T05:02:16.263Z,99097.22
2022-08-21T05:05:18.201Z,99099.16
2022-08-21T05:08:22.593Z,99106.50
2022-08-21T05:11:24.567Z,99104.69
2022-08-21T05:14:28.353Z,99101.66
2022-08-21T05:17:30.527Z,99091.72
2022-08-21T05:20:32.392Z,99089.66
2022-08-21T05:23:34.514Z,99092.88
2022-08-21T05:26:43.760Z,99093.84
2022-08-21T05:29:48.285Z,99100.94
2022-08-21T05:32:57.525Z,99113.81
2022-08-21T05:35:59.535Z,99106.75
2022-08-21T05:39:01.390Z,99099.06
2022-08-21T05:42:03.218Z,99107.44
2022-08-21T05:45:05.225Z,99100.25
2022-08-21T05:48:08.354Z,99103.31
2022-08-21T05:51:11.991Z,99097.16
2022-08-21T05:54:13.821Z,99105.31
2022-08-21T05:57:15.719Z,99109.94
2022-08-21T06:00:17.753Z,99102.69
2022-08-21T06:03:24.889Z,99111.22
2022-08-21T06:06:26.730Z,99108.91
2022-08-21T06:09:28.455Z,99123.81
2022-08-21T06:12:30.355Z,99118.09
2022-08-21T06:15:32.063Z,99103.59
2022-08-21T06:18:34.337Z,99104.50
2022-08-21T06:21:36.176Z,99101.16
2022-08-21T06:24:38.053Z,99105.53
2022-08-21T06:27:39.908Z,99108.34
2022-08-21T06:30:41.814Z,99107.31
2022-08-21T06:33:43.625Z,99115.03
2022-08-21T06:36:45.480Z,99099.94
2022-08-21T06:39:47.330Z,99104.28
2022-08-21T06:42:51.402Z,99105.47
2022-08-21T06:45:53.303Z,99103.88
2022-08-21T06:48:55.532Z,99107.94
2022-08-21T06:51:57.318Z,99106.66
2022-08-21T06:54:59.094Z,99099.50
2022-08-21T06:58:01.141Z,99097.56
2022-08-21T07:01:03.732Z,99105.28
2022-08-21T07:04:05.750Z,99107.47
2022-08-21T07:07:07.486Z,99095.31
2022-08-21T07:10:09.408Z,99104.66
2022-08-21T07:13:24.060Z,99099.16
2022-08-21T07:16:25.893Z,99095.25
2022-08-21T07:19:27.689Z,99092.88
2022-08-21T07:22:29.549Z,99090.28
2022-08-21T07:25:32.339Z,99087.63
2022-08-21T07:28:34.890Z,99086.09
2022-08-21T07:31:37.995Z,99086.75
2022-08-21T07:34:39.815Z,99089.16
2022-08-21T07:37:41.628Z,99094.59
2022-08-21T07:40:43.532Z,99092.63
2022-08-21T07:43:48.927Z,99092.69
2022-08-21T07:46:54.725Z,99085.25
2022-08-21T07:49:57.111Z,99081.63
2022-08-21T07:52:59.097Z,99090.44
2022-08-21T07:56:01.360Z,99079.19
2022-08-21T07:59:08.919Z,99079.94
2022-08-21T08:02:10.810Z,99081.09
2022-08-21T08:05:12.969Z,99083.66
2022-08-21T08:08:14.903Z,99095.97
2022-08-21T08:11:16.847Z,99080.44
2022-08-21T08:14:18.677Z,99073.50
2022-08-21T08:17:23.229Z,99078.13
2022-08-21T08:20:30.188Z,99086.81
2022-08-21T08:23:34.258Z,99078.03
2022-08-21T08:26:36.024Z,99082.75
2022-08-21T08:29:37.781Z,99071.13
2022-08-21T08:32:40.753Z,99071.78
2022-08-21T08:35:43.870Z,99072.06
2022-08-21T08:38:45.824Z,99076.97
2022-08-21T08:41:49.179Z,99081.00
2022-08-21T08:45:07.863Z,99075.03
2022-08-21T08:48:14.746Z,99079.53
2022-08-21T08:51:20.414Z,99073.50
2022-08-21T08:54:42.435Z,99079.28
2022-08-21T08:57:46.690Z,99071.06
2022-08-21T09:00:53.604Z,99061.66
2022-08-21T09:03:55.478Z,99074.34
2022-08-21T09:07:03.146Z,99071.31
2022-08-21T09:10:20.286Z,99070.69
2022-08-21T09:13:25.231Z,99083.41
2022-08-21T09:16:42.357Z,99079.25
2022-08-21T09:19:54.203Z,99073.09
2022-08-21T09:23:03.339Z,99081.31
2022-08-21T09:26:13.862Z,99084.72
2022-08-21T09:29:18.092Z,99077.50
2022-08-21T09:32:21.235Z,99075.13
2022-08-21T09:35:25.188Z,99085.41
2022-08-21T09:38:34.897Z,99083.38
2022-08-21T09:41:38.090Z,99081.53
2022-08-21T09:44:44.464Z,99081.59
2022-08-21T09:47:46.858Z,99089.34
2022-08-21T09:50:50.659Z,99091.94
2022-08-21T09:53:54.770Z,99097.91
2022-08-21T09:57:19.870Z,99085.06
2022-08-21T10:00:32.951Z,99091.75
2022-08-21T10:03:34.795Z,99090.66
2022-08-21T10:06:37.035Z,99097.88
2022-08-21T10:09:38.801Z,99097.06
2022-08-21T10:12:49.461Z,99095.34
2022-08-21T10:15:51.374Z,99103.38
2022-08-21T10:18:53.149Z,99103.09
2022-08-21T10:22:01.359Z,99112.47
2022-08-21T10:25:08.808Z,99101.78
2022-08-21T10:28:16.711Z,99101.38
2022-08-21T10:31:27.810Z,99113.34
2022-08-21T10:34:37.021Z,99115.84
2022-08-21T10:37:56.955Z,99112.94
2022-08-21T10:41:04.730Z,99108.50
2022-08-21T10:44:25.000Z,99108.19
2022-08-21T10:47:35.095Z,99096.66
2022-08-21T10:50:49.129Z,99097.78
2022-08-21T10:54:00.146Z,99101.63
2022-08-21T10:57:13.328Z,99098.53
2022-08-21T11:00:24.332Z,99089.44
2022-08-21T11:03:52.625Z,99091.88
2022-08-21T11:07:01.574Z,99096.34
2022-08-21T11:10:11.797Z,99096.31
2022-08-21T11:13:36.979Z,99095.44
2022-08-21T11:16:43.658Z,99089.59
2022-08-21T11:20:21.105Z,99090.34
2022-08-21T11:23:26.150Z,99087.81
2022-08-21T11:26:34.165Z,99093.09
2022-08-21T11:29:37.279Z,99089.28
2022-08-21T11:32:40.050Z,99088.75
2022-08-21T11:35:51.804Z,99088.41
2022-08-21T11:39:16.597Z,99082.94
2022-08-21T11:42:41.474Z,99072.53
2022-08-21T11:46:06.200Z,99075.88
2022-08-21T11:49:28.189Z,99073.47
2022-08-21T11:52:39.361Z,99072.91
2022-08-21T11:55:55.087Z,99079.44
2022-08-21T11:59:00.040Z,99071.97
2022-08-21T12:02:02.337Z,99064.81
2022-08-21T12:05:08.365Z,99078.31
2022-08-21T12:08:27.823Z,99074.72
2022-08-21T12:11:32.344Z,99073.38
2022-08-21T12:14:45.651Z,99057.19
2022-08-21T12:18:04.815Z,99065.09
2022-08-21T12:21:06.664Z,99060.31
2022-08-21T12:24:19.453Z,99057.03
2022-08-21T12:27:34.101Z,99050.53
2022-08-21T12:30:37.642Z,99049.50
2022-08-21T12:33:40.536Z,99050.47
2022-08-21T12:36:49.540Z,99048.59
2022-08-21T12:39:56.434Z,99052.59
2022-08-21T12:43:03.423Z,99054.25
2022-08-21T12:46:06.311Z,99057.09
2022-08-21T12:49:18.453Z,99052.94
2022-08-21T12:52:25.723Z,99052.47
2022-08-21T12:55:31.849Z,99047.56
2022-08-21T12:58:33.718Z,99048.91
2022-08-21T13:01:41.912Z,99041.13
2022-08-21T13:04:44.136Z,99047.84
2022-08-21T13:07:47.796Z,99044.06
2022-08-21T13:10:57.325Z,99057.97
2022-08-21T13:14:05.104Z,99057.88
2022-08-21T13:17:11.346Z,99048.94
2022-08-21T13:20:21.560Z,99052.69
2022-08-21T13:23:27.924Z,99044.53
2022-08-21T13:26:56.200Z,99050.59
2022-08-21T13:30:02.358Z,99043.75
2022-08-21T13:33:11.007Z,99050.38
2022-08-21T13:36:28.080Z,99059.44
2022-08-21T13:39:30.421Z,99070.47
2022-08-21T13:42:32.387Z,99085.13
2022-08-21T13:45:34.270Z,99066.50
2022-08-21T13:48:37.133Z,99073.13
2022-08-21T13:51:39.684Z,99073.56
2022-08-21T13:54:43.027Z,99074.31
2022-08-21T13:57:45.528Z,99073.81
2022-08-21T14:00:52.777Z,99079.84
2022-08-21T14:03:59.006Z,99077.91
2022-08-21T14:07:01.436Z,99077.91
2022-08-21T14:10:04.952Z,99077.84
2022-08-21T14:13:08.532Z,99075.66
2022-08-21T14:16:21.935Z,99084.44
2022-08-21T14:19:27.797Z,99065.09
2022-08-21T14:22:30.212Z,99059.69
2022-08-21T14:25:38.365Z,99067.63
2022-08-21T14:28:45.885Z,99052.75
2022-08-21T14:31:56.349Z,99062.22
2022-08-21T14:34:59.358Z,99053.84
2022-08-21T14:38:01.492Z,99054.38
2022-08-21T14:41:14.266Z,99058.25
2022-08-21T14:44:17.643Z,99058.81
2022-08-21T14:47:19.733Z,99064.88
2022-08-21T14:50:23.971Z,99066.56
2022-08-21T14:53:29.906Z,99060.28
2022-08-21T14:56:32.449Z,99070.63
2022-08-21T14:59:36.535Z,99069.28
2022-08-21T15:02:38.553Z,99063.22
2022-08-21T15:05:40.489Z,99067.19
2022-08-21T15:08:42.607Z,99069.94
2022-08-21T15:11:44.589Z,99068.91
2022-08-21T15:14:50.180Z,99064.25
2022-08-21T15:17:52.030Z,99063.81
2022-08-21T15:20:53.874Z,99058.66
2022-08-21T15:23:55.852Z,99065.56
2022-08-21T15:27:02.999Z,99064.19
2022-08-21T15:30:05.745Z,99067.53
2022-08-21T15:33:07.972Z,99055.50
2022-08-21T15:36:09.712Z,99056.63
2022-08-21T15:39:11.485Z,99064.38
2022-08-21T15:42:13.597Z,99064.72
2022-08-21T15:45:15.513Z,99061.72
2022-08-21T15:48:17.288Z,99057.88
2022-08-21T15:51:20.199Z,99052.41
2022-08-21T15:54:22.230Z,99056.28
2022-08-21T15:57:24.993Z,99051.34
2022-08-21T16:00:26.799Z,99046.69
2022-08-21T16:03:29.162Z,99043.13
2022-08-21T16:06:37.694Z,99038.50
2022-08-21T16:09:53.871Z,99034.38
2022-08-21T16:12:59.757Z,99051.69
2022-08-21T16:16:01.861Z,99050.03
2022-08-21T16:19:04.214Z,99043.22
2022-08-21T16:22:05.958Z,99041.56
2022-08-21T16:25:08.475Z,99043.22
2022-08-21T16:28:14.076Z,99044.03
2022-08-21T16:31:16.724Z,99039.38
2022-08-21T16:34:20.664Z,99046.47
2022-08-21T16:37:24.480Z,99051.69
2022-08-21T16:40:27.782Z,99048.66
2022-08-21T16:43:30.909Z,99053.63
2022-08-21T16:46:34.957Z,99047.31
2022-08-21T16:49:36.937Z,99042.63
2022-08-21T16:52:38.736Z,99042.09
2022-08-21T16:55:40.556Z,99056.91
2022-08-21T16:58:45.097Z,99052.25
2022-08-21T17:01:46.927Z,99050.88
2022-08-21T17:04:48.791Z,99047.56
2022-08-21T17:07:50.579Z,99051.69
2022-08-21T17:10:52.531Z,99048.16
2022-08-21T17:13:55.489Z,99038.53
2022-08-21T17:16:57.436Z,99045.97
2022-08-21T17:19:59.223Z,99045.41
2022-08-21T17:23:01.131Z,99047.03
2022-08-21T17:26:03.050Z,99041.78
2022-08-21T17:29:10.099Z,99044.25
2022-08-21T17:32:14.920Z,99040.97
2022-08-21T17:35:17.295Z,99041.28
2022-08-21T17:38:19.196Z,99043.72
2022-08-21T17:41:22.992Z,99040.44
2022-08-21T17:44:25.381Z,99043.44
2022-08-21T17:47:28.293Z,99035.75
2022-08-21T17:50:31.202Z,99036.56
2022-08-21T17:53:33.564Z,99031.59
2022-08-21T17:56:36.782Z,99040.09
2022-08-21T17:59:47.493Z,99041.19
2022-08-21T18:02:56.657Z,99038.44
2022-08-21T18:06:10.809Z,99035.13
2022-08-21T18:09:23.369Z,99035.94
2022-08-21T18:12:26.172Z,99026.59
2022-08-21T18:15:28.719Z,99028.78
2022-08-21T18:18:32.961Z,99023.03
2022-08-21T18:21:34.762Z,99028.75
2022-08-21T18:24:36.586Z,99025.13
2022-08-21T18:27:39.077Z,99028.09
2022-08-21T18:30:42.534Z,99027.22
2022-08-21T18:33:57.761Z,99019.00
2022-08-21T18:37:03.145Z,99027.78
2022-08-21T18:40:09.312Z,99024.19
2022-08-21T18:43:15.794Z,99024.75
2022-08-21T18:46:18.816Z,99028.06
2022-08-21T18:49:21.671Z,99023.66
2022-08-21T18:52:28.628Z,99028.59
2022-08-21T18:55:31.224Z,99024.16
2022-08-21T18:58:34.387Z,99019.81
2022-08-21T19:01:41.002Z,99025.00
2022-08-21T19:04:48.189Z,99014.84
2022-08-21T19:07:51.902Z,99014.28
2022-08-21T19:10:56.869Z,99015.91
2022-08-21T19:14:02.232Z,99014.84
2022-08-21T19:17:06.728Z,99024.16
2022-08-21T19:20:19.442Z,99017.28
2022-08-21T19:23:29.678Z,99010.38
2022-08-21T19:26:33.677Z,99009.81
2022-08-21T19:29:37.028Z,99010.91
2022-08-21T19:32:43.454Z,99021.91
2022-08-21T19:35:47.211Z,99023.00
2022-08-21T19:38:54.785Z,99021.09
2022-08-21T19:41:59.261Z,99021.13
2022-08-21T19:45:03.050Z,99016.78
2022-08-21T19:48:05.634Z,99007.72
2022-08-21T19:51:08.707Z,99006.34
2022-08-21T19:54:19.860Z,99009.34
2022-08-21T19:57:21.705Z,99005.50
2022-08-21T20:00:25.217Z,99008.22
2022-08-21T20:03:27.165Z,99011.50
2022-08-21T20:06:29.043Z,99000.84
2022-08-21T20:09:31.415Z,99005.25
2022-08-21T20:12:34.564Z,99008.28
2022-08-21T20:15:36.581Z,99004.75
2022-08-21T20:18:38.732Z,99005.84
2022-08-21T20:21:44.573Z,99011.88
2022-08-21T20:24:46.886Z,99007.78
2022-08-21T20:27:48.808Z,99007.47
2022-08-21T20:30:50.637Z,99006.91
2022-08-21T20:33:52.860Z,99007.41
2022-08-21T20:36:55.771Z,99004.09
2022-08-21T20:39:57.563Z,99009.06
2022-08-21T20:43:00.022Z,99004.06
2022-08-21T20:46:02.312Z,99006.78
2022-08-21T20:49:05.984Z,99004.63
2022-08-21T20:52:09.211Z,99009.50
2022-08-21T20:55:14.909Z,99004.00
2022-08-21T20:58:31.763Z,99001.50
2022-08-21T21:01:34.771Z,99002.78
2022-08-21T21:04:51.814Z,99000.28
2022-08-21T21:07:53.727Z,98996.97
2022-08-21T21:10:58.123Z,98996.94
2022-08-21T21:14:05.602Z,98999.06
2022-08-21T21:17:13.531Z,98995.22
2022-08-21T21:20:27.408Z,99000.91
2022-08-21T21:23:36.512Z,98999.00
2022-08-21T21:26:49.026Z,98997.31
2022-08-21T21:29:53.844Z,98999.53
2022-08-21T21:32:56.543Z,99002.00
2022-08-21T21:36:12.482Z,98997.63
2022-08-21T21:39:23.508Z,98999.00
2022-08-21T21:42:37.363Z,98997.88
2022-08-21T21:45:57.305Z,99007.13
2022-08-21T21:49:06.217Z,99006.03
2022-08-21T21:52:30.789Z,99013.38
2022-08-21T21:55:40.567Z,99004.63
2022-08-21T21:58:45.424Z,99013.38
2022-08-21T22:01:50.628Z,99010.97
2022-08-21T22:05:06.175Z,99006.56
2022-08-21T22:08:14.045Z,99005.19
2022-08-21T22:11:29.273Z,99005.19
2022-08-21T22:14:41.648Z,99008.75
2022-08-21T22:17:46.488Z,99009.56
2022-08-21T22:20:52.573Z,99001.34
2022-08-21T22:23:57.355Z,99009.81
2022-08-21T22:27:02.022Z,99003.75
2022-08-21T22:30:06.686Z,99000.78
2022-08-21T22:33:14.127Z,99000.53
2022-08-21T22:36:19.100Z,98996.16
2022-08-21T22:39:31.976Z,99004.53
2022-08-21T22:42:37.888Z,99000.91
2022-08-21T22:45:52.053Z,99011.28
2022-08-21T22:48:58.054Z,99015.88
2022-08-21T22:52:11.934Z,99023.50
2022-08-21T22:55:37.328Z,99018.25
2022-08-21T22:58:52.671Z,99019.13
2022-08-21T23:01:58.095Z,99022.25
2022-08-21T23:05:01.516Z,99031.41
2022-08-21T23:11:39.946Z,99018.97
2022-08-21T23:14:41.825Z,99023.03
2022-08-21T23:18:01.011Z,99016.38
2022-08-21T23:21:18.113Z,99020.69
2022-08-21T23:24:28.740Z,99026.69
2022-08-21T23:27:48.974Z,99029.66
2022-08-21T23:30:57.996Z,99029.72
2022-08-21T23:34:19.684Z,99030.56
2022-08-21T23:37:51.642Z,99033.44
2022-08-21T23:41:02.421Z,99047.13
2022-08-21T23:44:12.872Z,99035.41
2022-08-21T23:47:17.508Z,99036.00
2022-08-21T23:50:31.208Z,99036.31
2022-08-21T23:53:41.987Z,99040.69
2022-08-21T23:57:08.258Z,99042.47
